sensor_id;sensor_type;location;lat;lon;timestamp;pressure;altitude;pressure_sealevel;temperature;humidity
68873;BME280;55907;50.806;12.882;2023-04-25T00:00:38;965.2;;;6.8;79.8
68873;BME280;55907;50.806;12.882;2023-04-25T00:03:40;965.2;;;6.8;79.2
68873;BME280;55907;50.806;12.882;2023-04-25T00:06:41;965.2;;;6.8;79.5
68873;BME280;55907;50.806;12.882;2023-04-25T00:09:44;965.2;;;6.7;79.7
68873;BME280;55907;50.806;12.882;2023-04-25T00:12:45;965.2;;;6.7;79.5
68873;BME280;55907;50.806;12.882;2023-04-25T00:15:46;965.2;;;6.7;79.4
68873;BME280;55907;50.806;12.882;2023-04-25T00:18:48;965.2;;;6.7;79.7
68873;BME280;55907;50.806;12.882;2023-04-25T00:21:49;965.2;;;6.6;80.1
68873;BME280;55907;50.806;12.882;2023-04-25T00:24:51;965.2;;;6.6;80.0
68873;BME280;55907;50.806;12.882;2023-04-25T00:27:52;965.2;;;6.6;80.1
68873;BME280;55907;50.806;12.882;2023-04-25T00:30:54;965.2;;;6.6;80.2
68873;BME280;55907;50.806;12.882;2023-04-25T00:33:56;965.1;;;6.5;80.1
68873;BME280;55907;50.806;12.882;2023-04-25T00:36:57;965.1;;;6.5;80.0
68873;BME280;55907;50.806;12.882;2023-04-25T00:39:59;965.1;;;6.5;80.4
68873;BME280;55907;50.806;12.882;2023-04-25T00:43:00;965.1;;;6.5;80.4
68873;BME280;55907;50.806;12.882;2023-04-25T00:46:02;965.0;;;6.4;80.9
68873;BME280;55907;50.806;12.882;2023-04-25T00:49:03;965.1;;;6.5;81.2
68873;BME280;55907;50.806;12.882;2023-04-25T00:52:05;965.0;;;6.6;80.0
68873;BME280;55907;50.806;12.882;2023-04-25T00:55:08;965.1;;;6.6;80.5
68873;BME280;55907;50.806;12.882;2023-04-25T00:58:08;965.1;;;6.6;80.3
68873;BME280;55907;50.806;12.882;2023-04-25T01:01:10;965.1;;;6.6;80.1
68873;BME280;55907;50.806;12.882;2023-04-25T01:04:12;965.1;;;6.6;80.2
68873;BME280;55907;50.806;12.882;2023-04-25T01:07:13;965.1;;;6.6;80.2
68873;BME280;55907;50.806;12.882;2023-04-25T01:10:14;965.0;;;6.5;80.7
68873;BME280;55907;50.806;12.882;2023-04-25T01:13:16;965.0;;;6.5;80.8
68873;BME280;55907;50.806;12.882;2023-04-25T01:16:17;965.0;;;6.5;80.8
68873;BME280;55907;50.806;12.882;2023-04-25T01:19:19;965.0;;;6.5;81.2
68873;BME280;55907;50.806;12.882;2023-04-25T01:22:21;965.0;;;6.5;81.1
68873;BME280;55907;50.806;12.882;2023-04-25T01:25:22;964.9;;;6.6;81.1
68873;BME280;55907;50.806;12.882;2023-04-25T01:28:24;964.9;;;6.6;80.9
68873;BME280;55907;50.806;12.882;2023-04-25T01:31:26;964.9;;;6.7;80.8
68873;BME280;55907;50.806;12.882;2023-04-25T01:34:27;964.9;;;6.8;80.5
68873;BME280;55907;50.806;12.882;2023-04-25T01:37:28;964.8;;;6.8;80.3
68873;BME280;55907;50.806;12.882;2023-04-25T01:40:31;964.9;;;6.9;80.4
68873;BME280;55907;50.806;12.882;2023-04-25T01:43:31;964.9;;;7.0;80.2
68873;BME280;55907;50.806;12.882;2023-04-25T01:46:33;964.8;;;7.0;80.6
68873;BME280;55907;50.806;12.882;2023-04-25T01:49:35;964.9;;;7.0;80.6
68873;BME280;55907;50.806;12.882;2023-04-25T01:52:36;964.9;;;7.1;80.6
68873;BME280;55907;50.806;12.882;2023-04-25T01:55:38;964.8;;;7.1;80.2
68873;BME280;55907;50.806;12.882;2023-04-25T01:58:39;964.8;;;7.1;80.4
68873;BME280;55907;50.806;12.882;2023-04-25T02:01:41;964.8;;;7.1;80.6
68873;BME280;55907;50.806;12.882;2023-04-25T02:04:42;964.8;;;7.2;80.9
68873;BME280;55907;50.806;12.882;2023-04-25T02:07:44;964.8;;;7.2;80.5
68873;BME280;55907;50.806;12.882;2023-04-25T02:10:45;964.8;;;7.2;80.2
68873;BME280;55907;50.806;12.882;2023-04-25T02:13:47;964.9;;;7.2;80.1
68873;BME280;55907;50.806;12.882;2023-04-25T02:16:48;964.9;;;7.3;80.2
68873;BME280;55907;50.806;12.882;2023-04-25T02:19:50;964.8;;;7.3;79.9
68873;BME280;55907;50.806;12.882;2023-04-25T02:22:52;964.9;;;7.3;79.6
68873;BME280;55907;50.806;12.882;2023-04-25T02:25:53;964.8;;;7.4;79.3
68873;BME280;55907;50.806;12.882;2023-04-25T02:28:55;964.8;;;7.4;79.5
68873;BME280;55907;50.806;12.882;2023-04-25T02:31:56;964.8;;;7.5;78.9
68873;BME280;55907;50.806;12.882;2023-04-25T02:34:58;964.8;;;7.5;79.1
68873;BME280;55907;50.806;12.882;2023-04-25T02:37:59;964.8;;;7.6;79.0
68873;BME280;55907;50.806;12.882;2023-04-25T02:41:01;964.8;;;7.6;78.4
68873;BME280;55907;50.806;12.882;2023-04-25T02:44:02;964.7;;;7.7;78.5
68873;BME280;55907;50.806;12.882;2023-04-25T02:47:04;964.7;;;7.7;78.1
68873;BME280;55907;50.806;12.882;2023-04-25T02:50:06;964.7;;;7.8;77.5
68873;BME280;55907;50.806;12.882;2023-04-25T02:53:07;964.7;;;7.8;77.4
68873;BME280;55907;50.806;12.882;2023-04-25T02:56:08;964.6;;;7.9;77.3
68873;BME280;55907;50.806;12.882;2023-04-25T02:59:10;964.6;;;7.9;77.5
68873;BME280;55907;50.806;12.882;2023-04-25T03:02:12;964.6;;;8.0;77.5
68873;BME280;55907;50.806;12.882;2023-04-25T03:05:13;964.6;;;8.0;76.6
68873;BME280;55907;50.806;12.882;2023-04-25T03:08:15;964.6;;;8.0;76.3
68873;BME280;55907;50.806;12.882;2023-04-25T03:11:16;964.6;;;8.0;76.4
68873;BME280;55907;50.806;12.882;2023-04-25T03:14:18;964.6;;;8.0;76.6
68873;BME280;55907;50.806;12.882;2023-04-25T03:17:19;964.6;;;8.1;76.3
68873;BME280;55907;50.806;12.882;2023-04-25T03:20:21;964.5;;;8.1;76.4
68873;BME280;55907;50.806;12.882;2023-04-25T03:23:22;964.5;;;8.1;76.3
68873;BME280;55907;50.806;12.882;2023-04-25T03:26:24;964.5;;;8.1;76.4
68873;BME280;55907;50.806;12.882;2023-04-25T03:29:25;964.5;;;8.2;76.4
68873;BME280;55907;50.806;12.882;2023-04-25T03:35:29;964.6;;;8.2;76.8
68873;BME280;55907;50.806;12.882;2023-04-25T03:38:30;964.6;;;8.2;77.3
68873;BME280;55907;50.806;12.882;2023-04-25T03:41:32;964.5;;;8.2;77.4
68873;BME280;55907;50.806;12.882;2023-04-25T03:44:33;964.6;;;8.3;77.2
68873;BME280;55907;50.806;12.882;2023-04-25T03:47:35;964.5;;;8.3;77.6
68873;BME280;55907;50.806;12.882;2023-04-25T03:50:37;964.5;;;8.3;77.3
68873;BME280;55907;50.806;12.882;2023-04-25T03:53:38;964.6;;;8.3;77.3
68873;BME280;55907;50.806;12.882;2023-04-25T03:56:39;964.5;;;8.3;77.8
68873;BME280;55907;50.806;12.882;2023-04-25T03:59:41;964.6;;;8.3;77.5
68873;BME280;55907;50.806;12.882;2023-04-25T04:02:42;964.6;;;8.2;77.5
68873;BME280;55907;50.806;12.882;2023-04-25T04:05:44;964.6;;;8.3;77.4
68873;BME280;55907;50.806;12.882;2023-04-25T04:08:46;964.6;;;8.2;77.7
68873;BME280;55907;50.806;12.882;2023-04-25T04:11:47;964.6;;;8.2;77.1
68873;BME280;55907;50.806;12.882;2023-04-25T04:14:49;964.6;;;8.3;77.3
68873;BME280;55907;50.806;12.882;2023-04-25T04:17:50;964.6;;;8.3;76.9
68873;BME280;55907;50.806;12.882;2023-04-25T04:20:52;964.7;;;8.3;75.4
68873;BME280;55907;50.806;12.882;2023-04-25T04:23:54;964.7;;;8.3;74.9
68873;BME280;55907;50.806;12.882;2023-04-25T04:26:55;964.7;;;8.3;74.6
68873;BME280;55907;50.806;12.882;2023-04-25T04:29:56;964.7;;;8.3;74.3
68873;BME280;55907;50.806;12.882;2023-04-25T04:32:58;964.7;;;8.3;73.0
68873;BME280;55907;50.806;12.882;2023-04-25T04:36:00;964.8;;;8.3;73.0
68873;BME280;55907;50.806;12.882;2023-04-25T04:39:01;964.7;;;8.3;72.8
68873;BME280;55907;50.806;12.882;2023-04-25T04:42:03;964.7;;;8.4;72.1
68873;BME280;55907;50.806;12.882;2023-04-25T04:45:04;964.8;;;8.6;71.9
68873;BME280;55907;50.806;12.882;2023-04-25T04:48:06;964.8;;;8.7;70.7
68873;BME280;55907;50.806;12.882;2023-04-25T04:51:07;964.8;;;8.7;70.6
68873;BME280;55907;50.806;12.882;2023-04-25T04:54:08;964.9;;;8.7;70.0
68873;BME280;55907;50.806;12.882;2023-04-25T04:57:10;964.9;;;8.7;69.8
68873;BME280;55907;50.806;12.882;2023-04-25T05:00:12;965.0;;;8.7;69.6
68873;BME280;55907;50.806;12.882;2023-04-25T05:03:13;964.9;;;8.6;69.1
68873;BME280;55907;50.806;12.882;2023-04-25T05:06:15;964.9;;;8.6;69.1
68873;BME280;55907;50.806;12.882;2023-04-25T05:09:16;964.9;;;8.7;68.9
68873;BME280;55907;50.806;12.882;2023-04-25T05:12:18;964.9;;;8.9;68.1
68873;BME280;55907;50.806;12.882;2023-04-25T05:15:19;964.9;;;9.4;66.8
68873;BME280;55907;50.806;12.882;2023-04-25T05:18:21;964.9;;;10.0;64.4
68873;BME280;55907;50.806;12.882;2023-04-25T05:21:22;964.9;;;10.7;62.5
68873;BME280;55907;50.806;12.882;2023-04-25T05:24:24;964.9;;;10.7;61.9
68873;BME280;55907;50.806;12.882;2023-04-25T05:27:25;964.9;;;10.3;61.7
68873;BME280;55907;50.806;12.882;2023-04-25T05:30:27;964.9;;;9.9;62.5
68873;BME280;55907;50.806;12.882;2023-04-25T05:33:28;964.9;;;9.8;62.7
68873;BME280;55907;50.806;12.882;2023-04-25T05:36:30;964.9;;;9.9;62.3
68873;BME280;55907;50.806;12.882;2023-04-25T05:39:31;964.9;;;9.8;62.3
68873;BME280;55907;50.806;12.882;2023-04-25T05:42:33;964.9;;;9.6;62.1
68873;BME280;55907;50.806;12.882;2023-04-25T05:45:35;964.9;;;9.5;61.4
68873;BME280;55907;50.806;12.882;2023-04-25T05:48:37;964.9;;;9.4;62.2
68873;BME280;55907;50.806;12.882;2023-04-25T05:51:37;965.0;;;9.5;61.7
68873;BME280;55907;50.806;12.882;2023-04-25T06:00:42;965.1;;;9.7;61.5
68873;BME280;55907;50.806;12.882;2023-04-25T06:03:44;965.1;;;9.8;61.2
68873;BME280;55907;50.806;12.882;2023-04-25T06:06:45;965.1;;;9.7;61.6
68873;BME280;55907;50.806;12.882;2023-04-25T06:09:47;965.1;;;9.6;61.2
68873;BME280;55907;50.806;12.882;2023-04-25T06:12:48;965.2;;;9.6;62.6
68873;BME280;55907;50.806;12.882;2023-04-25T06:15:50;965.3;;;9.7;61.2
68873;BME280;55907;50.806;12.882;2023-04-25T06:18:51;965.2;;;9.7;60.7
68873;BME280;55907;50.806;12.882;2023-04-25T06:21:53;965.2;;;9.7;61.6
68873;BME280;55907;50.806;12.882;2023-04-25T06:24:54;965.2;;;9.7;62.3
68873;BME280;55907;50.806;12.882;2023-04-25T06:27:56;965.3;;;9.7;61.3
68873;BME280;55907;50.806;12.882;2023-04-25T06:30:58;965.3;;;9.8;60.5
68873;BME280;55907;50.806;12.882;2023-04-25T06:33:59;965.2;;;9.7;60.7
68873;BME280;55907;50.806;12.882;2023-04-25T06:37:01;965.3;;;9.6;60.7
68873;BME280;55907;50.806;12.882;2023-04-25T06:40:02;965.2;;;9.4;61.5
68873;BME280;55907;50.806;12.882;2023-04-25T06:43:04;965.2;;;9.3;62.8
68873;BME280;55907;50.806;12.882;2023-04-25T06:46:05;965.3;;;9.4;62.0
68873;BME280;55907;50.806;12.882;2023-04-25T06:49:07;965.2;;;9.3;62.5
68873;BME280;55907;50.806;12.882;2023-04-25T06:52:08;965.3;;;9.3;61.9
68873;BME280;55907;50.806;12.882;2023-04-25T06:55:10;965.3;;;9.3;61.9
68873;BME280;55907;50.806;12.882;2023-04-25T06:58:11;965.4;;;9.2;62.0
68873;BME280;55907;50.806;12.882;2023-04-25T07:01:13;965.4;;;9.2;61.7
68873;BME280;55907;50.806;12.882;2023-04-25T07:04:14;965.5;;;9.2;61.6
68873;BME280;55907;50.806;12.882;2023-04-25T07:07:16;965.5;;;9.2;61.6
68873;BME280;55907;50.806;12.882;2023-04-25T07:10:18;965.5;;;9.3;61.1
68873;BME280;55907;50.806;12.882;2023-04-25T07:13:19;965.5;;;9.3;60.8
68873;BME280;55907;50.806;12.882;2023-04-25T07:16:21;965.4;;;9.5;60.6
68873;BME280;55907;50.806;12.882;2023-04-25T07:19:22;965.5;;;9.9;59.8
68873;BME280;55907;50.806;12.882;2023-04-25T07:22:24;965.5;;;10.2;58.7
68873;BME280;55907;50.806;12.882;2023-04-25T07:25:25;965.5;;;10.5;57.5
68873;BME280;55907;50.806;12.882;2023-04-25T07:28:27;965.5;;;10.6;56.4
68873;BME280;55907;50.806;12.882;2023-04-25T07:31:28;965.5;;;10.5;55.9
68873;BME280;55907;50.806;12.882;2023-04-25T07:34:30;965.5;;;10.6;55.5
68873;BME280;55907;50.806;12.882;2023-04-25T07:37:31;965.6;;;10.9;55.1
68873;BME280;55907;50.806;12.882;2023-04-25T07:40:33;965.6;;;11.0;54.8
68873;BME280;55907;50.806;12.882;2023-04-25T07:43:34;965.6;;;11.1;54.0
68873;BME280;55907;50.806;12.882;2023-04-25T07:46:36;965.6;;;11.1;53.3
68873;BME280;55907;50.806;12.882;2023-04-25T07:49:39;965.7;;;11.2;53.1
68873;BME280;55907;50.806;12.882;2023-04-25T07:52:39;965.7;;;11.1;52.4
68873;BME280;55907;50.806;12.882;2023-04-25T07:55:40;965.7;;;10.8;51.5
68873;BME280;55907;50.806;12.882;2023-04-25T07:58:42;965.8;;;10.4;53.0
68873;BME280;55907;50.806;12.882;2023-04-25T08:01:43;965.8;;;10.5;53.2
68873;BME280;55907;50.806;12.882;2023-04-25T08:04:45;965.7;;;11.2;52.2
68873;BME280;55907;50.806;12.882;2023-04-25T08:07:47;965.7;;;11.6;51.5
68873;BME280;55907;50.806;12.882;2023-04-25T08:10:48;965.7;;;12.0;51.2
68873;BME280;55907;50.806;12.882;2023-04-25T08:13:50;965.7;;;12.4;50.3
68873;BME280;55907;50.806;12.882;2023-04-25T08:16:51;965.7;;;11.9;50.4
68873;BME280;55907;50.806;12.882;2023-04-25T08:19:53;965.7;;;11.5;51.1
68873;BME280;55907;50.806;12.882;2023-04-25T08:22:54;965.8;;;11.4;51.4
68873;BME280;55907;50.806;12.882;2023-04-25T08:25:56;965.8;;;12.4;51.4
68873;BME280;55907;50.806;12.882;2023-04-25T08:28:57;965.9;;;12.5;49.8
68873;BME280;55907;50.806;12.882;2023-04-25T08:31:59;965.8;;;12.0;51.2
68873;BME280;55907;50.806;12.882;2023-04-25T08:35:00;965.9;;;11.1;52.7
68873;BME280;55907;50.806;12.882;2023-04-25T08:41:05;966.0;;;10.7;54.8
68873;BME280;55907;50.806;12.882;2023-04-25T08:44:05;966.0;;;10.6;56.1
68873;BME280;55907;50.806;12.882;2023-04-25T08:47:06;966.0;;;10.8;55.6
68873;BME280;55907;50.806;12.882;2023-04-25T08:50:08;966.1;;;10.7;55.5
68873;BME280;55907;50.806;12.882;2023-04-25T08:53:12;966.1;;;10.6;55.6
68873;BME280;55907;50.806;12.882;2023-04-25T08:56:12;966.1;;;10.4;57.3
68873;BME280;55907;50.806;12.882;2023-04-25T08:59:12;966.2;;;10.2;57.5
68873;BME280;55907;50.806;12.882;2023-04-25T09:02:14;966.1;;;10.1;57.3
68873;BME280;55907;50.806;12.882;2023-04-25T09:05:15;966.2;;;10.2;57.8
68873;BME280;55907;50.806;12.882;2023-04-25T09:08:17;966.2;;;10.4;57.6
68873;BME280;55907;50.806;12.882;2023-04-25T09:11:18;966.3;;;10.7;57.7
68873;BME280;55907;50.806;12.882;2023-04-25T09:14:21;966.4;;;11.4;55.7
68873;BME280;55907;50.806;12.882;2023-04-25T09:17:22;966.3;;;11.5;54.1
68873;BME280;55907;50.806;12.882;2023-04-25T09:20:23;966.4;;;11.2;54.9
68873;BME280;55907;50.806;12.882;2023-04-25T09:23:25;966.4;;;11.0;56.0
68873;BME280;55907;50.806;12.882;2023-04-25T09:26:26;966.4;;;10.8;55.9
68873;BME280;55907;50.806;12.882;2023-04-25T09:29:30;966.5;;;10.7;56.8
68873;BME280;55907;50.806;12.882;2023-04-25T09:32:29;966.6;;;10.6;57.1
68873;BME280;55907;50.806;12.882;2023-04-25T09:35:35;966.6;;;10.5;58.0
68873;BME280;55907;50.806;12.882;2023-04-25T09:38:39;966.6;;;10.4;57.7
68873;BME280;55907;50.806;12.882;2023-04-25T09:41:37;966.6;;;10.2;58.6
68873;BME280;55907;50.806;12.882;2023-04-25T09:44:35;966.6;;;10.2;58.4
68873;BME280;55907;50.806;12.882;2023-04-25T09:47:37;966.7;;;9.9;59.1
68873;BME280;55907;50.806;12.882;2023-04-25T09:50:38;966.7;;;9.9;60.0
68873;BME280;55907;50.806;12.882;2023-04-25T09:53:41;966.7;;;9.9;60.5
68873;BME280;55907;50.806;12.882;2023-04-25T09:56:41;966.7;;;9.8;60.9
68873;BME280;55907;50.806;12.882;2023-04-25T09:59:44;966.7;;;9.7;61.2
68873;BME280;55907;50.806;12.882;2023-04-25T10:02:46;966.7;;;9.7;60.6
68873;BME280;55907;50.806;12.882;2023-04-25T10:05:46;966.7;;;9.8;61.1
68873;BME280;55907;50.806;12.882;2023-04-25T10:08:49;966.7;;;10.0;60.7
68873;BME280;55907;50.806;12.882;2023-04-25T10:11:50;966.7;;;10.3;60.6
68873;BME280;55907;50.806;12.882;2023-04-25T10:14:52;966.8;;;10.7;59.1
68873;BME280;55907;50.806;12.882;2023-04-25T10:17:52;966.8;;;10.6;58.5
68873;BME280;55907;50.806;12.882;2023-04-25T10:20:54;966.8;;;10.6;58.9
68873;BME280;55907;50.806;12.882;2023-04-25T10:23:55;966.8;;;10.6;58.8
68873;BME280;55907;50.806;12.882;2023-04-25T10:26:57;966.9;;;10.5;58.5
68873;BME280;55907;50.806;12.882;2023-04-25T10:30:02;966.9;;;10.3;60.0
68873;BME280;55907;50.806;12.882;2023-04-25T10:33:00;966.9;;;10.1;60.0
68873;BME280;55907;50.806;12.882;2023-04-25T10:36:08;966.9;;;10.3;59.0
68873;BME280;55907;50.806;12.882;2023-04-25T10:39:04;966.9;;;10.1;59.5
68873;BME280;55907;50.806;12.882;2023-04-25T10:42:04;967.0;;;10.0;61.5
68873;BME280;55907;50.806;12.882;2023-04-25T10:45:06;967.1;;;9.6;62.3
68873;BME280;55907;50.806;12.882;2023-04-25T10:48:24;967.1;;;9.2;63.2
68873;BME280;55907;50.806;12.882;2023-04-25T10:51:09;967.1;;;9.0;64.1
68873;BME280;55907;50.806;12.882;2023-04-25T10:54:11;967.1;;;8.8;64.2
68873;BME280;55907;50.806;12.882;2023-04-25T10:57:29;967.1;;;8.8;64.2
68873;BME280;55907;50.806;12.882;2023-04-25T11:00:15;967.2;;;8.9;64.2
68873;BME280;55907;50.806;12.882;2023-04-25T11:03:16;967.2;;;8.9;63.9
68873;BME280;55907;50.806;12.882;2023-04-25T11:06:22;967.2;;;8.8;63.9
68873;BME280;55907;50.806;12.882;2023-04-25T11:09:18;967.2;;;9.0;64.0
68873;BME280;55907;50.806;12.882;2023-04-25T11:12:20;967.2;;;9.2;63.4
68873;BME280;55907;50.806;12.882;2023-04-25T11:15:21;967.2;;;9.4;62.7
68873;BME280;55907;50.806;12.882;2023-04-25T11:18:25;967.3;;;9.4;62.6
68873;BME280;55907;50.806;12.882;2023-04-25T11:21:25;967.3;;;9.3;63.4
68873;BME280;55907;50.806;12.882;2023-04-25T11:24:27;967.3;;;9.5;63.4
68873;BME280;55907;50.806;12.882;2023-04-25T11:27:28;967.3;;;9.6;63.5
68873;BME280;55907;50.806;12.882;2023-04-25T11:28:20;967.3;;;9.6;63.0
68873;BME280;55907;50.806;12.882;2023-04-25T11:30:29;967.3;;;9.6;62.5
68873;BME280;55907;50.806;12.882;2023-04-25T11:33:30;967.3;;;9.3;62.7
68873;BME280;55907;50.806;12.882;2023-04-25T11:36:32;967.3;;;9.1;63.4
68873;BME280;55907;50.806;12.882;2023-04-25T11:42:36;967.4;;;9.0;64.3
68873;BME280;55907;50.806;12.882;2023-04-25T11:45:37;967.4;;;9.1;63.7
68873;BME280;55907;50.806;12.882;2023-04-25T11:48:38;967.4;;;9.1;64.1
68873;BME280;55907;50.806;12.882;2023-04-25T11:51:40;967.5;;;8.9;63.8
68873;BME280;55907;50.806;12.882;2023-04-25T11:54:44;967.5;;;8.8;63.6
68873;BME280;55907;50.806;12.882;2023-04-25T11:57:44;967.5;;;8.7;63.2
68873;BME280;55907;50.806;12.882;2023-04-25T12:00:45;967.6;;;8.7;63.7
68873;BME280;55907;50.806;12.882;2023-04-25T12:03:46;967.6;;;8.9;62.9
68873;BME280;55907;50.806;12.882;2023-04-25T12:06:49;967.6;;;9.1;62.1
68873;BME280;55907;50.806;12.882;2023-04-25T12:09:51;967.6;;;9.2;62.7
68873;BME280;55907;50.806;12.882;2023-04-25T12:12:51;967.6;;;9.1;61.9
68873;BME280;55907;50.806;12.882;2023-04-25T12:15:54;967.6;;;9.0;62.1
68873;BME280;55907;50.806;12.882;2023-04-25T12:18:55;967.7;;;9.1;62.1
68873;BME280;55907;50.806;12.882;2023-04-25T12:21:55;967.6;;;8.9;61.5
68873;BME280;55907;50.806;12.882;2023-04-25T12:24:57;967.7;;;8.6;63.4
68873;BME280;55907;50.806;12.882;2023-04-25T12:28:09;967.7;;;8.7;62.4
68873;BME280;55907;50.806;12.882;2023-04-25T12:31:01;967.7;;;8.7;62.0
68873;BME280;55907;50.806;12.882;2023-04-25T12:34:01;967.8;;;8.9;62.2
68873;BME280;55907;50.806;12.882;2023-04-25T12:37:03;967.8;;;8.9;62.6
68873;BME280;55907;50.806;12.882;2023-04-25T12:40:05;967.8;;;8.9;63.0
68873;BME280;55907;50.806;12.882;2023-04-25T12:43:06;967.9;;;8.9;62.8
68873;BME280;55907;50.806;12.882;2023-04-25T12:46:07;968.0;;;8.8;64.4
68873;BME280;55907;50.806;12.882;2023-04-25T12:49:09;968.0;;;8.7;64.2
68873;BME280;55907;50.806;12.882;2023-04-25T12:52:11;968.1;;;8.6;65.1
68873;BME280;55907;50.806;12.882;2023-04-25T12:55:12;968.0;;;8.4;65.7
68873;BME280;55907;50.806;12.882;2023-04-25T12:58:14;968.0;;;8.4;66.3
68873;BME280;55907;50.806;12.882;2023-04-25T13:01:15;968.1;;;8.6;66.1
68873;BME280;55907;50.806;12.882;2023-04-25T13:04:17;968.0;;;8.5;66.1
68873;BME280;55907;50.806;12.882;2023-04-25T13:07:18;968.0;;;8.6;65.8
68873;BME280;55907;50.806;12.882;2023-04-25T13:10:20;968.1;;;8.7;64.9
68873;BME280;55907;50.806;12.882;2023-04-25T13:13:21;968.1;;;8.8;64.8
68873;BME280;55907;50.806;12.882;2023-04-25T13:16:23;968.1;;;8.8;64.8
68873;BME280;55907;50.806;12.882;2023-04-25T13:19:24;968.0;;;9.0;64.6
68873;BME280;55907;50.806;12.882;2023-04-25T13:22:27;968.1;;;9.0;64.2
68873;BME280;55907;50.806;12.882;2023-04-25T13:25:27;968.2;;;8.9;64.7
68873;BME280;55907;50.806;12.882;2023-04-25T13:28:29;968.2;;;8.9;65.7
68873;BME280;55907;50.806;12.882;2023-04-25T13:34:32;968.2;;;8.9;64.6
68873;BME280;55907;50.806;12.882;2023-04-25T13:37:34;968.2;;;9.0;64.6
68873;BME280;55907;50.806;12.882;2023-04-25T13:40:35;968.2;;;9.1;64.9
68873;BME280;55907;50.806;12.882;2023-04-25T13:43:37;968.2;;;9.3;63.9
68873;BME280;55907;50.806;12.882;2023-04-25T13:46:38;968.2;;;9.5;62.3
68873;BME280;55907;50.806;12.882;2023-04-25T13:49:40;968.2;;;9.7;62.2
68873;BME280;55907;50.806;12.882;2023-04-25T13:52:42;968.2;;;9.8;62.2
68873;BME280;55907;50.806;12.882;2023-04-25T13:55:43;968.2;;;10.3;60.8
68873;BME280;55907;50.806;12.882;2023-04-25T13:58:45;968.2;;;10.8;60.1
68873;BME280;55907;50.806;12.882;2023-04-25T14:01:46;968.2;;;11.0;57.9
68873;BME280;55907;50.806;12.882;2023-04-25T14:04:47;968.1;;;10.9;56.9
68873;BME280;55907;50.806;12.882;2023-04-25T14:07:49;968.1;;;10.9;57.4
68873;BME280;55907;50.806;12.882;2023-04-25T14:10:50;968.1;;;10.8;58.0
68873;BME280;55907;50.806;12.882;2023-04-25T14:13:52;968.1;;;10.9;58.0
68873;BME280;55907;50.806;12.882;2023-04-25T14:16:53;968.1;;;10.9;57.4
68873;BME280;55907;50.806;12.882;2023-04-25T14:19:55;968.1;;;11.1;56.1
68873;BME280;55907;50.806;12.882;2023-04-25T14:22:57;968.1;;;11.2;55.9
68873;BME280;55907;50.806;12.882;2023-04-25T14:25:58;968.1;;;11.2;56.8
68873;BME280;55907;50.806;12.882;2023-04-25T14:28:59;968.1;;;11.1;56.7
68873;BME280;55907;50.806;12.882;2023-04-25T14:32:01;968.1;;;11.0;57.6
68873;BME280;55907;50.806;12.882;2023-04-25T14:35:03;968.2;;;10.6;58.3
68873;BME280;55907;50.806;12.882;2023-04-25T14:38:04;968.3;;;10.5;59.2
68873;BME280;55907;50.806;12.882;2023-04-25T14:41:06;968.4;;;10.2;60.7
68873;BME280;55907;50.806;12.882;2023-04-25T14:44:07;968.6;;;9.8;63.0
68873;BME280;55907;50.806;12.882;2023-04-25T14:47:09;968.6;;;9.2;62.2
68873;BME280;55907;50.806;12.882;2023-04-25T14:50:10;968.6;;;8.9;62.1
68873;BME280;55907;50.806;12.882;2023-04-25T14:53:12;968.6;;;8.8;62.7
68873;BME280;55907;50.806;12.882;2023-04-25T14:56:13;968.6;;;8.7;64.1
68873;BME280;55907;50.806;12.882;2023-04-25T14:59:15;968.7;;;8.6;64.4
68873;BME280;55907;50.806;12.882;2023-04-25T15:02:16;968.8;;;8.5;64.7
68873;BME280;55907;50.806;12.882;2023-04-25T15:05:18;968.8;;;8.3;65.0
68873;BME280;55907;50.806;12.882;2023-04-25T15:08:19;968.8;;;8.1;65.8
68873;BME280;55907;50.806;12.882;2023-04-25T15:11:21;968.8;;;8.0;66.6
68873;BME280;55907;50.806;12.882;2023-04-25T15:14:22;968.8;;;8.0;66.6
68873;BME280;55907;50.806;12.882;2023-04-25T15:17:24;968.8;;;8.0;66.1
68873;BME280;55907;50.806;12.882;2023-04-25T15:20:25;968.9;;;8.0;66.1
68873;BME280;55907;50.806;12.882;2023-04-25T15:23:27;968.8;;;8.1;66.0
68873;BME280;55907;50.806;12.882;2023-04-25T15:26:29;968.9;;;8.4;65.7
68873;BME280;55907;50.806;12.882;2023-04-25T15:29:30;968.9;;;8.7;65.5
68873;BME280;55907;50.806;12.882;2023-04-25T15:32:32;968.9;;;9.1;64.6
68873;BME280;55907;50.806;12.882;2023-04-25T15:35:33;968.9;;;9.5;63.0
68873;BME280;55907;50.806;12.882;2023-04-25T15:38:35;968.9;;;9.6;63.2
68873;BME280;55907;50.806;12.882;2023-04-25T15:43:38;unavailable;;;unavailable;unavailable
68873;BME280;55907;50.806;12.882;2023-04-25T15:43:39;968.8;;;9.6;61.8
68873;BME280;55907;50.806;12.882;2023-04-25T15:44:38;968.8;;;9.7;61.8
68873;BME280;55907;50.806;12.882;2023-04-25T15:47:40;968.8;;;10.1;60.4
68873;BME280;55907;50.806;12.882;2023-04-25T15:50:41;968.9;;;10.5;58.2
68873;BME280;55907;50.806;12.882;2023-04-25T15:53:43;968.9;;;10.9;57.7
68873;BME280;55907;50.806;12.882;2023-04-25T15:56:44;968.9;;;11.0;55.5
68873;BME280;55907;50.806;12.882;2023-04-25T15:59:47;968.8;;;10.9;54.2
68873;BME280;55907;50.806;12.882;2023-04-25T16:02:47;968.9;;;10.7;56.9
68873;BME280;55907;50.806;12.882;2023-04-25T16:05:49;968.9;;;10.4;56.5
68873;BME280;55907;50.806;12.882;2023-04-25T16:08:50;968.9;;;10.2;56.0
68873;BME280;55907;50.806;12.882;2023-04-25T16:11:52;968.9;;;10.2;56.7
68873;BME280;55907;50.806;12.882;2023-04-25T16:14:53;968.9;;;10.2;56.8
68873;BME280;55907;50.806;12.882;2023-04-25T16:17:55;968.9;;;10.2;56.1
68873;BME280;55907;50.806;12.882;2023-04-25T16:20:56;968.9;;;10.2;56.0
68873;BME280;55907;50.806;12.882;2023-04-25T16:23:58;968.9;;;10.0;56.4
68873;BME280;55907;50.806;12.882;2023-04-25T16:26:59;968.9;;;10.0;58.1
68873;BME280;55907;50.806;12.882;2023-04-25T16:30:01;968.9;;;9.9;56.6
68873;BME280;55907;50.806;12.882;2023-04-25T16:36:04;969.0;;;9.7;55.9
68873;BME280;55907;50.806;12.882;2023-04-25T16:39:06;969.1;;;9.5;56.6
68873;BME280;55907;50.806;12.882;2023-04-25T16:42:07;969.1;;;9.3;55.6
68873;BME280;55907;50.806;12.882;2023-04-25T16:45:09;969.2;;;9.1;55.3
68873;BME280;55907;50.806;12.882;2023-04-25T16:48:10;969.1;;;9.0;55.4
68873;BME280;55907;50.806;12.882;2023-04-25T16:51:12;969.2;;;8.9;55.9
68873;BME280;55907;50.806;12.882;2023-04-25T16:54:13;969.2;;;9.0;55.1
68873;BME280;55907;50.806;12.882;2023-04-25T16:57:15;969.2;;;9.0;54.1
68873;BME280;55907;50.806;12.882;2023-04-25T17:00:16;969.3;;;9.0;55.4
68873;BME280;55907;50.806;12.882;2023-04-25T17:03:18;969.2;;;9.0;53.9
68873;BME280;55907;50.806;12.882;2023-04-25T17:06:19;969.3;;;9.0;53.8
68873;BME280;55907;50.806;12.882;2023-04-25T17:12:22;969.3;;;8.9;54.3
68873;BME280;55907;50.806;12.882;2023-04-25T17:15:24;969.3;;;8.9;54.6
68873;BME280;55907;50.806;12.882;2023-04-25T17:18:26;969.3;;;8.8;54.5
68873;BME280;55907;50.806;12.882;2023-04-25T17:21:27;969.3;;;8.8;54.2